Time;durP1;ratioP1;P1;durP2;ratioP2;P2;SDS_P1;SDS_P2;PMS_P1;PMS_P2;Temp;Humidity;BMP_temperature;BMP_pressure;BME280_temperature;BME280_humidity;BME280_pressure;Samples;Min_cycle;Max_cycle;Signal;HPM_P1;HPM_P2
2022/03/13 00:01:51;;;;;;;;;;;;;;;;;;4554860;28;20423;-65
2022/03/13 00:04:01;;;;;;;;;;;;;;;;;;4539127;28;19920;-64
2022/03/13 00:06:12;;;;;;;;;;;;;;;;;;4539826;28;19967;-65
2022/03/13 00:08:24;;;;;;;;;;;;;;;;;;4539149;28;20675;-64
2022/03/13 00:10:35;;;;;;;;;;;;;;;;;;4515639;28;20484;-64
2022/03/13 00:12:47;;;;;;;;;;;;;;;;;;4538283;28;20543;-64
2022/03/13 00:15:05;;;;;;;;;;;;;;;;;;4539572;28;20303;-65
2022/03/13 00:17:15;;;;;;;;;;;;;;;;;;4525943;28;19920;-65
2022/03/13 00:19:26;;;;;;;;;;;;;;;;;;4539598;28;19916;-64
2022/03/13 00:21:37;;;;;;;;;;;;;;;;;;4539722;28;19920;-65
2022/03/13 00:23:47;;;;;;;;;;;;;;;;;;4521397;28;19924;-64
2022/03/13 00:25:58;;;;;;;;;;;;;;;;;;4555280;28;19924;-64
2022/03/13 00:28:08;;;;;;;;;;;;;;;;;;4520794;28;19921;-65
2022/03/13 00:30:19;;;;;;;;;;;;;;;;;;4539416;28;19924;-64
2022/03/13 00:32:29;;;;;;;;;;;;;;;;;;4539168;28;19917;-65
2022/03/13 00:34:39;;;;;;;;;;;;;;;;;;4539653;28;27836;-64
2022/03/13 00:36:50;;;;;;;;;;;;;;;;;;4539608;28;19960;-65
2022/03/13 00:39:00;;;;;;;;;;;;;;;;;;4539240;28;20002;-64
2022/03/13 00:41:11;;;;;;;;;;;;;;;;;;4539244;28;28797;-64
2022/03/13 00:43:22;;;;;;;;;;;;;;;;;;4539726;28;20025;-64
2022/03/13 00:45:32;;;;;;;;;;;;;;;;;;4523859;28;20019;-63
2022/03/13 00:47:43;;;;;;;;;;;;;;;;;;4515101;28;19917;-64
2022/03/13 00:49:53;;;;;;;;;;;;;;;;;;4539302;28;19912;-65
2022/03/13 00:52:04;;;;;;;;;;;;;;;;;;4539139;28;19945;-64
2022/03/13 00:54:14;;;;;;;;;;;;;;;;;;4539213;28;20490;-64
2022/03/13 00:56:24;;;;;;;;;;;;;;;;;;4539462;28;19982;-64
2022/03/13 00:58:34;;;;;;;;;;;;;;;;;;4554269;28;20474;-65
2022/03/13 01:00:45;;;;;;;;;;;;;;;;;;4513546;28;20024;-65
2022/03/13 01:02:55;;;;;;;;;;;;;;;;;;4539777;28;20007;-64
2022/03/13 01:05:07;;;;;;;;;;;;;;;;;;4538857;28;19917;-65
2022/03/13 01:07:17;;;;;;;;;;;;;;;;;;4554901;28;20007;-64
2022/03/13 01:09:28;;;;;;;;;;;;;;;;;;4539085;28;19928;-65
2022/03/13 01:11:38;;;;;;;;;;;;;;;;;;4539503;28;19916;-64
2022/03/13 01:13:49;;;;;;;;;;;;;;;;;;4538734;28;20082;-64
2022/03/13 01:16:00;;;;;;;;;;;;;;;;;;4538783;28;20011;-65
2022/03/13 01:18:10;;;;;;;;;;;;;;;;;;4555217;28;19981;-65
2022/03/13 01:20:21;;;;;;;;;;;;;;;;;;4506601;28;29105;-64
2022/03/13 01:22:31;;;;;;;;;;;;;;;;;;4515560;28;19914;-64
2022/03/13 01:24:46;;;;;;;;;;;;;;;;;;4521253;28;19917;-65
2022/03/13 01:27:00;;;;;;;;;;;;;;;;;;4554093;28;19930;-66
2022/03/13 01:29:11;;;;;;;;;;;;;;;;;;4538822;28;19919;-65
2022/03/13 01:31:25;;;;;;;;;;;;;;;;;;4538978;28;20043;-64
2022/03/13 01:33:36;;;;;;;;;;;;;;;;;;4539136;28;20101;-65
2022/03/13 01:35:46;;;;;;;;;;;;;;;;;;4538978;28;19923;-65
2022/03/13 01:37:58;;;;;;;;;;;;;;;;;;4538779;28;20007;-65
2022/03/13 01:40:12;;;;;;;;;;;;;;;;;;4539256;28;20484;-65
2022/03/13 01:42:22;;;;;;;;;;;;;;;;;;4539022;28;20537;-65
2022/03/13 01:44:33;;;;;;;;;;;;;;;;;;4520558;28;19917;-65
2022/03/13 01:46:43;;;;;;;;;;;;;;;;;;4538804;28;19956;-65
2022/03/13 01:48:55;;;;;;;;;;;;;;;;;;4539041;28;19916;-64
2022/03/13 01:51:06;;;;;;;;;;;;;;;;;;4538880;28;20527;-65
2022/03/13 01:53:18;;;;;;;;;;;;;;;;;;4537627;28;20266;-65
2022/03/13 01:55:28;;;;;;;;;;;;;;;;;;4539112;28;19923;-65
2022/03/13 01:57:39;;;;;;;;;;;;;;;;;;4537673;28;19928;-64
2022/03/13 01:59:51;;;;;;;;;;;;;;;;;;4520545;28;19963;-65
2022/03/13 02:02:02;;;;;;;;;;;;;;;;;;4538785;28;19920;-65
2022/03/13 02:04:12;;;;;;;;;;;;;;;;;;4538502;28;20476;-65
2022/03/13 02:06:29;;;;;;;;;;;;;;;;;;4538327;28;20011;-65
2022/03/13 02:08:40;;;;;;;;;;;;;;;;;;4538072;28;19916;-64
2022/03/13 02:10:51;;;;;;;;;;;;;;;;;;4537819;28;20496;-65
2022/03/13 02:13:01;;;;;;;;;;;;;;;;;;4538187;28;19916;-65
2022/03/13 02:15:11;;;;;;;;;;;;;;;;;;4536379;28;19948;-65
2022/03/13 02:17:26;;;;;;;;;;;;;;;;;;4538152;28;19974;-65
2022/03/13 02:19:36;;;;;;;;;;;;;;;;;;4553353;28;19916;-65
2022/03/13 02:21:49;;;;;;;;;;;;;;;;;;4537872;28;20423;-65
2022/03/13 02:24:00;;;;;;;;;;;;;;;;;;4520528;28;19967;-65
2022/03/13 02:26:11;;;;;;;;;;;;;;;;;;4537867;28;20115;-65
2022/03/13 02:28:23;;;;;;;;;;;;;;;;;;4537744;28;19913;-65
2022/03/13 02:30:34;;;;;;;;;;;;;;;;;;4538193;28;20631;-65
2022/03/13 02:32:44;;;;;;;;;;;;;;;;;;4553453;28;19991;-65
2022/03/13 02:34:54;;;;;;;;;;;;;;;;;;4538326;28;19920;-65
2022/03/13 02:37:05;;;;;;;;;;;;;;;;;;4519939;28;20350;-64
2022/03/13 02:39:15;;;;;;;;;;;;;;;;;;4553007;28;19921;-65
2022/03/13 02:41:28;;;;;;;;;;;;;;;;;;4538134;28;19917;-65
2022/03/13 02:43:39;;;;;;;;;;;;;;;;;;4520631;28;19916;-64
2022/03/13 02:45:49;;;;;;;;;;;;;;;;;;4502909;28;19917;-64
2022/03/13 02:48:00;;;;;;;;;;;;;;;;;;4552655;28;20357;-65
2022/03/13 02:50:10;;;;;;;;;;;;;;;;;;4553552;28;19959;-65
2022/03/13 02:52:21;;;;;;;;;;;;;;;;;;4537827;28;20007;-65
2022/03/13 02:54:31;;;;;;;;;;;;;;;;;;4538264;28;19970;-65
2022/03/13 02:56:42;;;;;;;;;;;;;;;;;;4553141;28;19921;-65
2022/03/13 02:58:52;;;;;;;;;;;;;;;;;;4519758;28;20492;-64
2022/03/13 03:01:03;;;;;;;;;;;;;;;;;;4537562;28;20032;-64
2022/03/13 03:03:14;;;;;;;;;;;;;;;;;;4537750;28;20011;-64
2022/03/13 03:05:24;;;;;;;;;;;;;;;;;;4520586;28;19991;-64
2022/03/13 03:07:35;;;;;;;;;;;;;;;;;;4519349;28;19979;-63
2022/03/13 03:09:45;;;;;;;;;;;;;;;;;;4537947;28;19919;-65
2022/03/13 03:11:57;;;;;;;;;;;;;;;;;;4537615;28;20369;-65
2022/03/13 03:14:07;;;;;;;;;;;;;;;;;;4538074;28;20532;-65
2022/03/13 03:16:18;;;;;;;;;;;;;;;;;;4538407;28;19916;-64
2022/03/13 03:18:29;;;;;;;;;;;;;;;;;;4537607;28;19909;-64
2022/03/13 03:20:40;;;;;;;;;;;;;;;;;;4537776;28;19921;-64
2022/03/13 03:22:51;;;;;;;;;;;;;;;;;;4537597;28;20285;-64
2022/03/13 03:25:01;;;;;;;;;;;;;;;;;;4537737;28;19920;-65
2022/03/13 03:27:12;;;;;;;;;;;;;;;;;;4523953;28;19916;-65
2022/03/13 03:29:26;;;;;;;;;;;;;;;;;;4540713;28;19924;-65
2022/03/13 03:31:39;;;;;;;;;;;;;;;;;;4555669;28;19924;-65
2022/03/13 03:33:49;;;;;;;;;;;;;;;;;;4538244;28;19920;-65
2022/03/13 03:35:59;;;;;;;;;;;;;;;;;;4541055;28;19916;-65
2022/03/13 03:38:11;;;;;;;;;;;;;;;;;;4540257;28;19923;-65
2022/03/13 03:40:22;;;;;;;;;;;;;;;;;;4556047;28;19993;-65
2022/03/13 03:42:33;;;;;;;;;;;;;;;;;;4539062;28;19966;-64
2022/03/13 03:44:44;;;;;;;;;;;;;;;;;;4516000;28;20987;-65
2022/03/13 03:46:55;;;;;;;;;;;;;;;;;;4540078;28;19917;-65
2022/03/13 03:49:05;;;;;;;;;;;;;;;;;;4540396;28;19917;-64
2022/03/13 03:51:15;;;;;;;;;;;;;;;;;;4540413;28;20332;-65
2022/03/13 03:53:25;;;;;;;;;;;;;;;;;;4540485;28;25348;-64
2022/03/13 03:55:36;;;;;;;;;;;;;;;;;;4539830;28;19928;-65
2022/03/13 03:57:46;;;;;;;;;;;;;;;;;;4540675;28;19924;-64
2022/03/13 03:59:56;;;;;;;;;;;;;;;;;;4540948;28;19970;-64
2022/03/13 04:02:07;;;;;;;;;;;;;;;;;;4541002;28;20444;-64
2022/03/13 04:04:17;;;;;;;;;;;;;;;;;;4540316;28;20317;-65
2022/03/13 04:06:29;;;;;;;;;;;;;;;;;;4540770;28;19926;-65
2022/03/13 04:08:39;;;;;;;;;;;;;;;;;;4538480;28;20587;-65
2022/03/13 04:10:50;;;;;;;;;;;;;;;;;;4540456;28;20020;-64
2022/03/13 04:13:01;;;;;;;;;;;;;;;;;;4539473;28;35453;-64
2022/03/13 04:15:11;;;;;;;;;;;;;;;;;;4524393;28;19979;-64
2022/03/13 04:17:22;;;;;;;;;;;;;;;;;;4540784;28;19959;-64
2022/03/13 04:19:32;;;;;;;;;;;;;;;;;;4540216;28;19986;-65
2022/03/13 04:21:42;;;;;;;;;;;;;;;;;;4540475;28;19921;-64
2022/03/13 04:23:53;;;;;;;;;;;;;;;;;;4540239;28;19916;-65
2022/03/13 04:26:04;;;;;;;;;;;;;;;;;;4538538;28;19928;-65
2022/03/13 04:28:15;;;;;;;;;;;;;;;;;;4539648;28;19917;-65
2022/03/13 04:30:29;;;;;;;;;;;;;;;;;;4554691;28;19913;-64
2022/03/13 04:32:41;;;;;;;;;;;;;;;;;;4540335;28;19917;-64
2022/03/13 04:34:51;;;;;;;;;;;;;;;;;;4539836;28;19920;-64
2022/03/13 04:37:02;;;;;;;;;;;;;;;;;;4539753;28;20347;-64
2022/03/13 04:39:13;;;;;;;;;;;;;;;;;;4554797;28;20241;-65
2022/03/13 04:41:23;;;;;;;;;;;;;;;;;;4520875;28;19913;-64
2022/03/13 04:43:33;;;;;;;;;;;;;;;;;;4539237;28;19959;-64
2022/03/13 04:45:43;;;;;;;;;;;;;;;;;;4540121;28;20372;-65
2022/03/13 04:47:54;;;;;;;;;;;;;;;;;;4538995;28;19912;-64
2022/03/13 04:50:04;;;;;;;;;;;;;;;;;;4539509;28;19920;-65
2022/03/13 04:52:15;;;;;;;;;;;;;;;;;;4539677;28;20646;-64
2022/03/13 04:54:25;;;;;;;;;;;;;;;;;;4555123;28;20366;-63
2022/03/13 04:56:35;;;;;;;;;;;;;;;;;;4539691;28;19917;-64
2022/03/13 04:58:45;;;;;;;;;;;;;;;;;;4539029;28;27727;-64
2022/03/13 05:00:56;;;;;;;;;;;;;;;;;;4555174;28;19920;-65
2022/03/13 05:03:06;;;;;;;;;;;;;;;;;;4539043;28;19913;-64
2022/03/13 05:05:17;;;;;;;;;;;;;;;;;;4523811;28;20014;-64
2022/03/13 05:07:28;;;;;;;;;;;;;;;;;;4539153;28;19928;-64
2022/03/13 05:09:38;;;;;;;;;;;;;;;;;;4539606;28;20069;-64
2022/03/13 05:11:49;;;;;;;;;;;;;;;;;;4507339;28;19917;-65
2022/03/13 05:13:59;;;;;;;;;;;;;;;;;;4513285;28;19999;-64
2022/03/13 05:16:09;;;;;;;;;;;;;;;;;;4537932;28;19923;-64
2022/03/13 05:18:20;;;;;;;;;;;;;;;;;;4539264;28;20015;-64
2022/03/13 05:20:33;;;;;;;;;;;;;;;;;;4539710;28;19916;-64
2022/03/13 05:22:43;;;;;;;;;;;;;;;;;;4537663;28;20033;-65
2022/03/13 05:24:58;;;;;;;;;;;;;;;;;;4516388;28;19929;-65
2022/03/13 05:27:10;;;;;;;;;;;;;;;;;;4539293;28;20011;-64
2022/03/13 05:29:21;;;;;;;;;;;;;;;;;;4539191;28;20278;-64
2022/03/13 05:31:31;;;;;;;;;;;;;;;;;;4539059;28;19924;-64
2022/03/13 05:33:42;;;;;;;;;;;;;;;;;;4538974;28;20594;-65
2022/03/13 05:35:52;;;;;;;;;;;;;;;;;;4522123;28;19928;-64
2022/03/13 05:38:02;;;;;;;;;;;;;;;;;;4539318;28;20011;-64
2022/03/13 05:40:14;;;;;;;;;;;;;;;;;;4554141;28;20464;-65
2022/03/13 05:42:27;;;;;;;;;;;;;;;;;;4554188;28;19925;-64
2022/03/13 05:44:37;;;;;;;;;;;;;;;;;;4539100;28;19917;-64
2022/03/13 05:46:48;;;;;;;;;;;;;;;;;;4538763;28;20369;-65
2022/03/13 05:48:58;;;;;;;;;;;;;;;;;;4538457;28;19926;-66
2022/03/13 05:51:08;;;;;;;;;;;;;;;;;;4553491;28;19912;-64
2022/03/13 05:53:19;;;;;;;;;;;;;;;;;;4538764;28;20412;-65
2022/03/13 05:55:30;;;;;;;;;;;;;;;;;;4553511;28;20397;-65
2022/03/13 05:57:40;;;;;;;;;;;;;;;;;;4538445;28;19917;-65
2022/03/13 05:59:51;;;;;;;;;;;;;;;;;;4553986;28;19935;-64
2022/03/13 06:02:03;;;;;;;;;;;;;;;;;;4538092;28;19962;-64
2022/03/13 06:04:14;;;;;;;;;;;;;;;;;;4535758;28;19917;-64
2022/03/13 06:06:24;;;;;;;;;;;;;;;;;;4511332;28;19921;-64
2022/03/13 06:08:35;;;;;;;;;;;;;;;;;;4537255;28;19912;-64
2022/03/13 06:10:45;;;;;;;;;;;;;;;;;;4537203;28;20278;-65
2022/03/13 06:12:55;;;;;;;;;;;;;;;;;;4537776;28;19920;-64
2022/03/13 06:15:06;;;;;;;;;;;;;;;;;;4537132;28;19916;-64
2022/03/13 06:17:16;;;;;;;;;;;;;;;;;;4537873;28;19963;-64
2022/03/13 06:19:28;;;;;;;;;;;;;;;;;;4536961;28;20614;-64
2022/03/13 06:21:40;;;;;;;;;;;;;;;;;;4537135;28;31542;-64
2022/03/13 06:23:50;;;;;;;;;;;;;;;;;;4553423;28;21466;-65
2022/03/13 06:26:01;;;;;;;;;;;;;;;;;;4537658;28;19958;-64
2022/03/13 06:28:12;;;;;;;;;;;;;;;;;;4537475;28;19916;-64
2022/03/13 06:30:23;;;;;;;;;;;;;;;;;;4537663;28;19968;-65
2022/03/13 06:32:34;;;;;;;;;;;;;;;;;;4537678;28;19917;-65
2022/03/13 06:34:44;;;;;;;;;;;;;;;;;;4536486;28;19924;-64
2022/03/13 06:36:55;;;;;;;;;;;;;;;;;;4537792;28;19920;-65
2022/03/13 06:39:05;;;;;;;;;;;;;;;;;;4536859;28;19963;-65
2022/03/13 06:41:18;;;;;;;;;;;;;;;;;;4537722;28;19927;-65
2022/03/13 06:43:29;;;;;;;;;;;;;;;;;;4537259;28;20754;-65
2022/03/13 06:45:39;;;;;;;;;;;;;;;;;;4535069;28;20059;-65
2022/03/13 06:47:50;;;;;;;;;;;;;;;;;;4537336;28;20348;-64
2022/03/13 06:50:00;;;;;;;;;;;;;;;;;;4505534;28;19917;-64
2022/03/13 06:52:10;;;;;;;;;;;;;;;;;;4513784;28;19988;-65
2022/03/13 06:54:21;;;;;;;;;;;;;;;;;;4537390;28;19925;-65
2022/03/13 06:56:31;;;;;;;;;;;;;;;;;;4537252;28;20762;-65
2022/03/13 06:58:42;;;;;;;;;;;;;;;;;;4537393;28;19995;-64
2022/03/13 07:00:52;;;;;;;;;;;;;;;;;;4537289;28;20380;-65
2022/03/13 07:03:02;;;;;;;;;;;;;;;;;;4540676;28;19917;-64
2022/03/13 07:05:13;;;;;;;;;;;;;;;;;;4540533;28;20427;-65
2022/03/13 07:07:23;;;;;;;;;;;;;;;;;;4540824;28;19917;-65
2022/03/13 07:09:34;;;;;;;;;;;;;;;;;;4522552;28;19999;-65
2022/03/13 07:11:47;;;;;;;;;;;;;;;;;;4540670;28;19928;-65
2022/03/13 07:13:58;;;;;;;;;;;;;;;;;;4541007;28;19917;-65
2022/03/13 07:16:08;;;;;;;;;;;;;;;;;;4540805;28;19916;-65
2022/03/13 07:18:20;;;;;;;;;;;;;;;;;;4540075;28;19927;-65
2022/03/13 07:20:30;;;;;;;;;;;;;;;;;;4540268;28;20380;-65
2022/03/13 07:22:41;;;;;;;;;;;;;;;;;;4540992;28;19917;-65
2022/03/13 07:24:51;;;;;;;;;;;;;;;;;;4539978;28;19927;-65
2022/03/13 07:27:01;;;;;;;;;;;;;;;;;;4540402;28;20003;-65
2022/03/13 07:29:12;;;;;;;;;;;;;;;;;;4555420;28;20015;-65
2022/03/13 07:31:22;;;;;;;;;;;;;;;;;;4521296;28;19917;-65
2022/03/13 07:33:33;;;;;;;;;;;;;;;;;;4540651;28;20015;-65
2022/03/13 07:35:44;;;;;;;;;;;;;;;;;;4540300;28;20117;-65
2022/03/13 07:37:54;;;;;;;;;;;;;;;;;;4540132;28;19916;-65
2022/03/13 07:40:05;;;;;;;;;;;;;;;;;;4540252;28;20319;-65
2022/03/13 07:42:16;;;;;;;;;;;;;;;;;;4521505;28;19971;-65
2022/03/13 07:44:26;;;;;;;;;;;;;;;;;;4522321;28;20515;-65
2022/03/13 07:46:37;;;;;;;;;;;;;;;;;;4539945;28;19928;-65
2022/03/13 07:48:47;;;;;;;;;;;;;;;;;;4540105;28;19920;-65
2022/03/13 07:50:58;;;;;;;;;;;;;;;;;;4540166;28;19919;-65
2022/03/13 07:53:08;;;;;;;;;;;;;;;;;;4540401;28;20003;-65
2022/03/13 07:55:21;;;;;;;;;;;;;;;;;;4540314;28;19963;-64
2022/03/13 07:57:31;;;;;;;;;;;;;;;;;;4540308;28;19917;-65
2022/03/13 07:59:42;;;;;;;;;;;;;;;;;;4540307;28;19921;-65
2022/03/13 08:01:53;;;;;;;;;;;;;;;;;;4540235;28;20558;-64
2022/03/13 08:04:05;;;;;;;;;;;;;;;;;;4539373;28;19940;-64
2022/03/13 08:06:15;;;;;;;;;;;;;;;;;;4515067;28;20271;-65
2022/03/13 08:08:25;;;;;;;;;;;;;;;;;;4539554;28;19916;-65
2022/03/13 08:10:36;;;;;;;;;;;;;;;;;;4538898;28;19978;-65
2022/03/13 08:12:47;;;;;;;;;;;;;;;;;;4539852;28;19916;-64
2022/03/13 08:14:57;;;;;;;;;;;;;;;;;;4538690;28;19927;-64
2022/03/13 08:17:07;;;;;;;;;;;;;;;;;;4539466;28;19928;-64
2022/03/13 08:19:18;;;;;;;;;;;;;;;;;;4554890;28;19916;-64
2022/03/13 08:21:29;;;;;;;;;;;;;;;;;;4521130;28;19995;-64
2022/03/13 08:23:39;;;;;;;;;;;;;;;;;;4539338;28;19921;-64
2022/03/13 08:25:50;;;;;;;;;;;;;;;;;;4555296;28;19916;-65
2022/03/13 08:28:01;;;;;;;;;;;;;;;;;;4521212;28;19920;-64
2022/03/13 08:30:12;;;;;;;;;;;;;;;;;;4521200;28;20012;-64
2022/03/13 08:32:22;;;;;;;;;;;;;;;;;;4539117;28;19919;-65
2022/03/13 08:34:34;;;;;;;;;;;;;;;;;;4538949;28;19932;-65
2022/03/13 08:36:47;;;;;;;;;;;;;;;;;;4513698;28;19917;-65
2022/03/13 08:38:57;;;;;;;;;;;;;;;;;;4538930;28;19950;-64
2022/03/13 08:41:07;;;;;;;;;;;;;;;;;;4515096;28;19920;-65
2022/03/13 08:43:18;;;;;;;;;;;;;;;;;;4555120;28;19986;-64
2022/03/13 08:45:29;;;;;;;;;;;;;;;;;;4521587;28;19917;-64
2022/03/13 08:47:40;;;;;;;;;;;;;;;;;;4538953;28;19920;-64
2022/03/13 08:49:51;;;;;;;;;;;;;;;;;;4521573;28;19951;-65
2022/03/13 08:52:02;;;;;;;;;;;;;;;;;;4539304;28;19920;-65
2022/03/13 08:54:16;;;;;;;;;;;;;;;;;;4538894;28;20721;-63
2022/03/13 08:56:26;;;;;;;;;;;;;;;;;;4554605;28;20456;-65
2022/03/13 08:58:36;;;;;;;;;;;;;;;;;;4539005;28;19948;-65
2022/03/13 09:00:50;;;;;;;;;;;;;;;;;;4538695;28;21794;-64
2022/03/13 09:03:01;;;;;;;;;;;;;;;;;;4521584;28;19962;-64
2022/03/13 09:05:11;;;;;;;;;;;;;;;;;;4538872;28;19970;-65
2022/03/13 09:07:21;;;;;;;;;;;;;;;;;;4539176;28;20503;-64
2022/03/13 09:09:32;;;;;;;;;;;;;;;;;;4538906;28;19917;-65
2022/03/13 09:11:42;;;;;;;;;;;;;;;;;;4554659;28;19921;-64
2022/03/13 09:13:53;;;;;;;;;;;;;;;;;;4513856;28;19943;-63
2022/03/13 09:16:03;;;;;;;;;;;;;;;;;;4538498;28;20651;-64
2022/03/13 09:18:13;;;;;;;;;;;;;;;;;;4538626;28;19916;-65
2022/03/13 09:20:24;;;;;;;;;;;;;;;;;;4538598;28;19923;-64
2022/03/13 09:22:35;;;;;;;;;;;;;;;;;;4519988;28;20095;-64
2022/03/13 09:24:46;;;;;;;;;;;;;;;;;;4538430;28;19983;-64
2022/03/13 09:26:56;;;;;;;;;;;;;;;;;;4520992;28;20435;-64
2022/03/13 09:29:07;;;;;;;;;;;;;;;;;;4538776;28;19920;-64
2022/03/13 09:31:17;;;;;;;;;;;;;;;;;;4539137;28;19917;-64
2022/03/13 09:33:28;;;;;;;;;;;;;;;;;;4538556;28;19916;-65
2022/03/13 09:35:38;;;;;;;;;;;;;;;;;;4537877;28;19916;-65
2022/03/13 09:37:49;;;;;;;;;;;;;;;;;;4538483;28;19913;-64
2022/03/13 09:39:59;;;;;;;;;;;;;;;;;;4538760;28;19921;-63
2022/03/13 09:42:10;;;;;;;;;;;;;;;;;;4538607;28;19917;-61
2022/03/13 09:44:20;;;;;;;;;;;;;;;;;;4520099;28;19963;-59
2022/03/13 09:46:31;;;;;;;;;;;;;;;;;;4553431;28;20647;-60
2022/03/13 09:48:41;;;;;;;;;;;;;;;;;;4537888;28;19955;-61
2022/03/13 09:50:52;;;;;;;;;;;;;;;;;;4504868;28;20350;-64
2022/03/13 09:53:02;;;;;;;;;;;;;;;;;;4536653;28;19917;-60
2022/03/13 09:55:13;;;;;;;;;;;;;;;;;;4520000;28;19979;-61
2022/03/13 09:57:23;;;;;;;;;;;;;;;;;;4553461;28;20336;-65
2022/03/13 09:59:34;;;;;;;;;;;;;;;;;;4537869;28;19936;-64
2022/03/13 10:01:44;;;;;;;;;;;;;;;;;;4504016;28;20296;-63
2022/03/13 10:03:55;;;;;;;;;;;;;;;;;;4553367;28;19916;-63
2022/03/13 10:06:06;;;;;;;;;;;;;;;;;;4537679;28;20307;-64
2022/03/13 10:08:17;;;;;;;;;;;;;;;;;;4537709;28;19916;-64
2022/03/13 10:10:32;;;;;;;;;;;;;;;;;;4537887;28;20898;-65
2022/03/13 10:12:46;;;;;;;;;;;;;;;;;;4553163;28;20046;-67
2022/03/13 10:15:00;;;;;;;;;;;;;;;;;;4519703;28;19924;-62
2022/03/13 10:17:14;;;;;;;;;;;;;;;;;;4538658;28;20823;-64
2022/03/13 10:19:26;;;;;;;;;;;;;;;;;;4518977;28;19917;-64
2022/03/13 10:21:38;;;;;;;;;;;;;;;;;;4539441;28;20486;-63
2022/03/13 10:23:48;;;;;;;;;;;;;;;;;;4538009;28;19913;-64
2022/03/13 10:25:59;;;;;;;;;;;;;;;;;;4520022;28;19917;-64
2022/03/13 10:28:18;;;;;;;;;;;;;;;;;;4537643;28;19970;-64
2022/03/13 10:30:29;;;;;;;;;;;;;;;;;;4523442;28;19917;-64
2022/03/13 10:32:39;;;;;;;;;;;;;;;;;;4537630;28;29838;-64
2022/03/13 10:35:01;;;;;;;;;;;;;;;;;;4528622;28;19972;-64
2022/03/13 10:37:11;;;;;;;;;;;;;;;;;;4553074;28;19920;-64
2022/03/13 10:39:22;;;;;;;;;;;;;;;;;;4538126;28;20408;-64
2022/03/13 10:41:42;;;;;;;;;;;;;;;;;;4538006;28;19938;-64
2022/03/13 10:43:54;;;;;;;;;;;;;;;;;;4538326;28;19924;-64
2022/03/13 10:46:05;;;;;;;;;;;;;;;;;;4537862;28;19921;-64
2022/03/13 10:48:20;;;;;;;;;;;;;;;;;;4553766;28;19998;-64
2022/03/13 10:50:40;;;;;;;;;;;;;;;;;;4522098;28;19917;-64
2022/03/13 10:52:50;;;;;;;;;;;;;;;;;;4554117;28;19916;-64
2022/03/13 10:55:24;;;;;;;;;;;;;;;;;;4537589;28;19998;-64
2022/03/13 10:57:35;;;;;;;;;;;;;;;;;;4537920;28;19923;-64
2022/03/13 10:59:55;;;;;;;;;;;;;;;;;;4520556;28;19924;-64
2022/03/13 11:02:16;;;;;;;;;;;;;;;;;;4553767;28;19916;-64
2022/03/13 11:04:26;;;;;;;;;;;;;;;;;;4537450;28;20514;-64
2022/03/13 11:06:37;;;;;;;;;;;;;;;;;;4537987;28;19934;-64
2022/03/13 11:08:52;;;;;;;;;;;;;;;;;;4537853;28;19915;-64
2022/03/13 11:11:02;;;;;;;;;;;;;;;;;;4537546;28;19921;-64
2022/03/13 11:13:14;;;;;;;;;;;;;;;;;;4520118;28;20487;-64
2022/03/13 11:15:27;;;;;;;;;;;;;;;;;;4537784;28;19927;-64
2022/03/13 11:17:40;;;;;;;;;;;;;;;;;;4537465;28;19928;-64
2022/03/13 11:19:51;;;;;;;;;;;;;;;;;;4537256;28;19963;-64
2022/03/13 11:22:02;;;;;;;;;;;;;;;;;;4520402;28;19971;-63
2022/03/13 11:24:12;;;;;;;;;;;;;;;;;;4537845;28;20036;-63
2022/03/13 11:26:24;;;;;;;;;;;;;;;;;;4537619;28;19917;-64
2022/03/13 11:28:35;;;;;;;;;;;;;;;;;;4553338;28;20019;-64
2022/03/13 11:30:45;;;;;;;;;;;;;;;;;;4538017;28;19916;-64
2022/03/13 11:32:56;;;;;;;;;;;;;;;;;;4537976;28;20024;-64
2022/03/13 11:35:10;;;;;;;;;;;;;;;;;;4537710;28;19931;-64
2022/03/13 11:37:29;;;;;;;;;;;;;;;;;;4537418;28;19916;-63
2022/03/13 11:39:40;;;;;;;;;;;;;;;;;;4553024;28;21044;-64
2022/03/13 11:41:50;;;;;;;;;;;;;;;;;;4536569;28;35647;-64
2022/03/13 11:44:04;;;;;;;;;;;;;;;;;;4520029;28;20011;-64
2022/03/13 11:46:15;;;;;;;;;;;;;;;;;;4537349;28;19969;-64
2022/03/13 11:48:25;;;;;;;;;;;;;;;;;;4518534;28;20331;-64
2022/03/13 11:50:47;;;;;;;;;;;;;;;;;;4540287;28;19971;-64
2022/03/13 11:53:16;;;;;;;;;;;;;;;;;;4540348;28;20537;-64
2022/03/13 11:55:27;;;;;;;;;;;;;;;;;;4540187;28;19971;-65
2022/03/13 11:57:44;;;;;;;;;;;;;;;;;;4521617;28;20007;-66
2022/03/13 12:00:10;;;;;;;;;;;;;;;;;;4540786;28;19990;-63
2022/03/13 12:02:42;;;;;;;;;;;;;;;;;;4540861;28;19916;-63
2022/03/13 12:05:04;;;;;;;;;;;;;;;;;;4540651;28;19916;-63
2022/03/13 12:07:33;;;;;;;;;;;;;;;;;;4555692;28;20202;-63
2022/03/13 12:09:44;;;;;;;;;;;;;;;;;;4538808;28;19916;-63
2022/03/13 12:12:07;;;;;;;;;;;;;;;;;;4555272;28;19982;-63
2022/03/13 12:14:18;;;;;;;;;;;;;;;;;;4540082;28;19920;-63
2022/03/13 12:16:28;;;;;;;;;;;;;;;;;;4540593;28;20006;-64
2022/03/13 12:18:39;;;;;;;;;;;;;;;;;;4540201;28;20012;-63
2022/03/13 12:20:50;;;;;;;;;;;;;;;;;;4521939;28;20002;-63
2022/03/13 12:23:01;;;;;;;;;;;;;;;;;;4540330;28;19970;-63
2022/03/13 12:25:13;;;;;;;;;;;;;;;;;;4540271;28;19920;-63
2022/03/13 12:27:23;;;;;;;;;;;;;;;;;;4540617;28;20620;-63
2022/03/13 12:29:34;;;;;;;;;;;;;;;;;;4539899;28;20505;-63
2022/03/13 12:31:46;;;;;;;;;;;;;;;;;;4540376;28;19913;-63
2022/03/13 12:33:58;;;;;;;;;;;;;;;;;;4555454;28;21543;-63
2022/03/13 12:36:08;;;;;;;;;;;;;;;;;;4540006;28;19920;-63
2022/03/13 12:38:25;;;;;;;;;;;;;;;;;;4539386;28;28604;-63
2022/03/13 12:40:42;;;;;;;;;;;;;;;;;;4521928;28;20007;-63
2022/03/13 12:42:53;;;;;;;;;;;;;;;;;;4521352;28;19975;-63
2022/03/13 12:45:05;;;;;;;;;;;;;;;;;;4555489;28;19963;-63
2022/03/13 12:47:25;;;;;;;;;;;;;;;;;;4540285;28;20703;-63
2022/03/13 12:49:36;;;;;;;;;;;;;;;;;;4540235;28;20517;-63
2022/03/13 12:51:50;;;;;;;;;;;;;;;;;;4538364;28;20607;-63
2022/03/13 12:54:07;;;;;;;;;;;;;;;;;;4539512;28;19998;-63
2022/03/13 12:56:17;;;;;;;;;;;;;;;;;;4539052;28;22020;-63
2022/03/13 12:58:42;;;;;;;;;;;;;;;;;;4507737;28;19993;-63
2022/03/13 13:00:52;;;;;;;;;;;;;;;;;;4537633;28;20014;-62
2022/03/13 13:03:05;;;;;;;;;;;;;;;;;;4539730;28;19939;-63
2022/03/13 13:05:15;;;;;;;;;;;;;;;;;;4539859;28;19923;-63
2022/03/13 13:07:27;;;;;;;;;;;;;;;;;;4539518;28;19927;-63
2022/03/13 13:09:39;;;;;;;;;;;;;;;;;;4539287;28;19920;-63
2022/03/13 13:11:49;;;;;;;;;;;;;;;;;;4521257;28;20575;-62
2022/03/13 13:14:01;;;;;;;;;;;;;;;;;;4506849;28;20861;-63
2022/03/13 13:16:11;;;;;;;;;;;;;;;;;;4554843;28;19920;-63
2022/03/13 13:18:23;;;;;;;;;;;;;;;;;;4538920;28;19920;-63
2022/03/13 13:20:34;;;;;;;;;;;;;;;;;;4537898;28;19916;-63
2022/03/13 13:22:44;;;;;;;;;;;;;;;;;;4515871;28;19917;-63
2022/03/13 13:25:21;;;;;;;;;;;;;;;;;;4539393;28;19917;-63
2022/03/13 13:27:33;;;;;;;;;;;;;;;;;;4519325;28;19917;-62
2022/03/13 13:29:43;;;;;;;;;;;;;;;;;;4539375;28;19917;-62
2022/03/13 13:31:53;;;;;;;;;;;;;;;;;;4520954;28;19921;-67
2022/03/13 13:34:14;;;;;;;;;;;;;;;;;;4503822;28;20537;-70
2022/03/13 13:36:24;;;;;;;;;;;;;;;;;;4538819;28;19921;-70
2022/03/13 13:38:35;;;;;;;;;;;;;;;;;;4520228;28;19909;-70
2022/03/13 13:40:56;;;;;;;;;;;;;;;;;;4538553;28;20002;-69
2022/03/13 13:43:09;;;;;;;;;;;;;;;;;;4539090;28;19928;-65
2022/03/13 13:45:19;;;;;;;;;;;;;;;;;;4538811;28;19912;-65
2022/03/13 13:47:29;;;;;;;;;;;;;;;;;;4538377;28;19917;-65
2022/03/13 13:49:41;;;;;;;;;;;;;;;;;;4538352;28;20015;-65
2022/03/13 13:51:51;;;;;;;;;;;;;;;;;;4553670;28;19916;-65
2022/03/13 13:54:05;;;;;;;;;;;;;;;;;;4519409;28;20003;-65
2022/03/13 13:56:16;;;;;;;;;;;;;;;;;;4538573;28;20492;-65
2022/03/13 13:58:29;;;;;;;;;;;;;;;;;;4537587;28;19963;-65
2022/03/13 14:00:39;;;;;;;;;;;;;;;;;;4538571;28;20047;-66
2022/03/13 14:02:50;;;;;;;;;;;;;;;;;;4538037;28;20083;-66
2022/03/13 14:05:01;;;;;;;;;;;;;;;;;;4553695;28;19923;-64
2022/03/13 14:07:11;;;;;;;;;;;;;;;;;;4538259;28;19917;-65
2022/03/13 14:09:21;;;;;;;;;;;;;;;;;;4538057;28;20653;-65
2022/03/13 14:11:35;;;;;;;;;;;;;;;;;;4518640;28;20434;-66
2022/03/13 14:13:46;;;;;;;;;;;;;;;;;;4537903;28;19925;-66
2022/03/13 14:15:57;;;;;;;;;;;;;;;;;;4506630;28;19948;-66
2022/03/13 14:18:07;;;;;;;;;;;;;;;;;;4537972;28;20440;-66
2022/03/13 14:20:18;;;;;;;;;;;;;;;;;;4538039;28;19916;-66
2022/03/13 14:22:33;;;;;;;;;;;;;;;;;;4538248;28;19987;-65
2022/03/13 14:24:43;;;;;;;;;;;;;;;;;;4553059;28;19920;-66
2022/03/13 14:26:54;;;;;;;;;;;;;;;;;;4537952;28;19909;-66
2022/03/13 14:29:04;;;;;;;;;;;;;;;;;;4537769;28;19916;-66
2022/03/13 14:31:15;;;;;;;;;;;;;;;;;;4538423;28;20489;-66
2022/03/13 14:33:25;;;;;;;;;;;;;;;;;;4553040;28;20018;-66
2022/03/13 14:35:35;;;;;;;;;;;;;;;;;;4553291;28;19920;-66
2022/03/13 14:37:46;;;;;;;;;;;;;;;;;;4537820;28;20024;-66
2022/03/13 14:39:56;;;;;;;;;;;;;;;;;;4553312;28;20313;-66
2022/03/13 14:42:06;;;;;;;;;;;;;;;;;;4537589;28;19923;-66
2022/03/13 14:44:18;;;;;;;;;;;;;;;;;;4538129;28;19917;-66
2022/03/13 14:46:29;;;;;;;;;;;;;;;;;;4537511;28;20479;-66
2022/03/13 14:48:40;;;;;;;;;;;;;;;;;;4553129;28;20329;-65
2022/03/13 14:50:51;;;;;;;;;;;;;;;;;;4537428;28;20387;-66
2022/03/13 14:53:01;;;;;;;;;;;;;;;;;;4537960;28;20404;-66
2022/03/13 14:55:14;;;;;;;;;;;;;;;;;;4537762;28;19932;-66
2022/03/13 14:57:26;;;;;;;;;;;;;;;;;;4502951;28;19981;-66
2022/03/13 14:59:36;;;;;;;;;;;;;;;;;;4537569;28;20403;-66